createdAt,value
2019-02-27T00:26:57.476Z,2.40
2019-02-27T00:57:02.388Z,1.70
2019-02-27T01:27:07.216Z,1.20
2019-02-27T01:57:12.093Z,0.80
2019-02-27T02:27:39.145Z,0.50
2019-02-27T02:58:07.981Z,0.30
2019-02-27T03:28:19.198Z,0.30
2019-02-27T03:58:30.446Z,0.20
2019-02-27T04:28:33.523Z,-0.20
2019-02-27T04:58:42.855Z,-0.30
2019-02-27T05:28:45.624Z,-0.30
2019-02-27T05:58:51.133Z,-0.30
2019-02-27T06:28:55.906Z,-0.40
2019-02-27T06:59:00.871Z,-0.30
2019-02-27T07:29:05.626Z,0.60
2019-02-27T07:59:10.493Z,1.80
2019-02-27T08:29:15.317Z,3.40
2019-02-27T08:59:20.124Z,4.90
2019-02-27T09:29:24.961Z,7.30
2019-02-27T09:59:32.169Z,8.90
2019-02-27T10:29:36.924Z,9.70
2019-02-27T10:59:41.869Z,10.90
2019-02-27T11:29:46.704Z,12.10
2019-02-27T11:59:51.504Z,11.50
2019-02-27T12:29:56.365Z,11.10
2019-02-27T13:00:01.376Z,12.20
2019-02-27T13:30:09.473Z,12.40
2019-02-27T14:00:20.369Z,12.50
2019-02-27T14:30:29.641Z,12.50
2019-02-27T15:00:39.644Z,12.60
2019-02-27T15:30:46.429Z,12.30
2019-02-27T16:00:52.186Z,11.60
2019-02-27T16:30:55.681Z,10.60
2019-02-27T17:01:00.697Z,9.50
2019-02-27T17:31:05.541Z,9.00
2019-02-27T18:01:13.850Z,8.70
2019-02-27T18:31:18.770Z,8.50
2019-02-27T19:01:23.766Z,7.90
2019-02-27T19:31:28.872Z,7.70
2019-02-27T20:01:34.497Z,7.40
2019-02-27T20:31:39.401Z,7.20
2019-02-27T21:01:47.110Z,7.10
2019-02-27T21:31:51.018Z,6.60
2019-02-27T22:01:56.423Z,6.60
2019-02-27T22:32:01.811Z,6.20
2019-02-27T23:02:07.253Z,6.60
2019-02-27T23:32:12.167Z,6.30
